Aérodrome :
LOGIN :

S'inscrire | Disclaimer

   EN    FR    IT 

 










Légende :    VFR   VFR Marginal   IFR   IFR Intensif   IFR Très Intensif
Visi : 
Plafond : 
>= 8 km
>= 3000ft
5 à 8 km
1000 à 3000 ft
1500m à 5 km
500 à 1000 ft
800 à 1500m
200 à 500 ft
< 800m
< 200 ft
Symboles :   Orages  Brouillard  Fortes neiges  Fortes précipitations  Vent > 20 kt
SIGMETs :   Divers  Orages  Givrage  Turbulence  Onde Orograph.  Cendres Volcan.







- Altitude de l'aérodrome : 100 ft


EBDT - Schaffen

DERNIER METAR :
  • 280025Z AUTO 00000KT 9999 FEW095/// BKN230/// 18/14 Q1018 BLU

METARs EXPIRÉS :
  • 272355Z AUTO VRB01KT 9999 FEW100/// SCT130/// BKN210/// 18/14 Q1018 BLU
  • 272350Z AUTO VRB01KT 9999 FEW110/// SCT130/// BKN150/// 19/14 Q1018 BLU
  • 272339Z AUTO 33003KT 5000 FEW120/// SCT140/// BKN210/// 18/14 Q1018 WHT
  • 272325Z AUTO 33005KT 9999 FEW110/// BKN200/// 18/14 Q1018 BLU
  • 272255Z AUTO 36005KT 9999 FEW050/// 18/14 Q1018 BLU
  • 272225Z AUTO 36004KT 9999 NCD 19/14 Q1018 BLU

Prévision TAF périmée.
Pas de NOTAMs connus pour ce terrain.



MET'MAP, la Météo Aéronautique d'un coup d'oeil ! - Copyright ORBIFLY Décembre 2007 - Disclaimer

ORBIFLY MET'MAP TEAM :

Programmation & Développement : Alexandra Zaïnal
Conception & Développement : Baudouin d'Aumeries
Co-Programmation & Développement : Marc-Olivier Méhu
Soutien technique & logistique : Manuel Goepfert

Contact : metmap@orbifly.com




SOURCES & CREDITS :

   NOAA